Time;durP1;ratioP1;P1;durP2;ratioP2;P2;SDS_P1;SDS_P2;PMS_P1;PMS_P2;Temp;Humidity;BMP_temperature;BMP_pressure;BME280_temperature;BME280_humidity;BME280_pressure;Samples;Min_cycle;Max_cycle;Signal;HPM_P1;HPM_P2
2021/10/26 00:09:26;;;;;;;6.65;4.93;;;23.40;56.20;;;;;;31918558;27;20063;-51
2021/10/26 00:24:28;;;;;;;6.03;5.25;;;23.30;56.00;;;;;;31920857;27;20059;-45
2021/10/26 00:39:30;;;;;;;9.23;5.55;;;23.30;56.10;;;;;;31892419;27;20073;-52
2021/10/26 00:54:32;;;;;;;6.13;4.63;;;23.10;56.00;;;;;;31890644;27;20094;-53
2021/10/26 01:09:35;;;;;;;6.05;4.50;;;23.00;56.10;;;;;;31909083;27;20082;-51
2021/10/26 01:24:37;;;;;;;5.20;4.32;;;22.90;56.00;;;;;;31974775;27;20052;-45
2021/10/26 01:39:40;;;;;;;7.40;5.45;;;22.90;55.80;;;;;;31972012;27;20043;-47
2021/10/26 01:54:42;;;;;;;5.57;4.93;;;22.90;55.80;;;;;;31899985;27;20047;-49
2021/10/26 02:09:45;;;;;;;5.97;4.40;;;22.90;55.90;;;;;;31916190;27;20079;-46
2021/10/26 02:24:47;;;;;;;6.38;4.43;;;22.90;56.30;;;;;;31896246;27;20081;-44
2021/10/26 02:39:49;;;;;;;6.43;3.85;;;23.30;57.30;;;;;;31901045;27;20068;-43
2021/10/26 02:54:51;;;;;;;3.65;3.05;;;23.40;56.50;;;;;;31981455;27;20126;-45
2021/10/26 03:09:53;;;;;;;5.25;3.90;;;23.40;56.20;;;;;;31924467;27;20055;-43
2021/10/26 03:24:55;;;;;;;4.22;3.35;;;23.30;56.10;;;;;;31923617;27;20103;-49
2021/10/26 03:39:57;;;;;;;4.70;3.42;;;23.20;56.10;;;;;;31960527;28;20121;-47
2021/10/26 03:54:59;;;;;;;6.20;3.40;;;23.00;55.90;;;;;;31902641;27;20043;-50
2021/10/26 04:10:07;;;;;;;6.00;3.40;;;23.00;56.00;;;;;;31910485;28;20062;-45
2021/10/26 04:25:09;;;;;;;6.03;3.72;;;23.00;56.00;;;;;;31925743;27;20099;-43
2021/10/26 04:40:12;;;;;;;4.78;3.30;;;22.90;56.10;;;;;;31904545;27;20047;-52
2021/10/26 04:55:15;;;;;;;6.18;3.10;;;22.80;56.40;;;;;;31902599;27;20043;-48
2021/10/26 05:10:17;;;;;;;7.68;3.90;;;23.20;56.80;;;;;;31894439;27;20113;-48
2021/10/26 05:25:19;;;;;;;23.02;8.48;;;23.40;57.10;;;;;;31952943;27;20055;-52
2021/10/26 05:40:41;;;;;;;45.60;20.02;;;23.20;51.70;;;;;;31952588;27;20062;-58
2021/10/26 05:55:43;;;;;;;29.95;14.38;;;22.70;51.10;;;;;;31903850;27;20085;-57
2021/10/26 06:10:53;;;;;;;29.23;17.63;;;22.20;48.70;;;;;;31930260;27;20130;-53
2021/10/26 06:25:56;;;;;;;;;;;22.60;48.40;;;;;;31933558;27;20047;-49
2021/10/26 06:40:58;;;;;;;32.67;21.13;;;22.90;47.60;;;;;;31945180;27;19999;-63
2021/10/26 06:56:04;;;;;;;29.80;20.70;;;22.90;46.60;;;;;;31930786;27;20265;-63
2021/10/26 07:11:07;;;;;;;25.15;18.00;;;22.90;48.70;;;;;;31923719;27;20130;-63
2021/10/26 07:26:10;;;;;;;22.20;16.17;;;22.70;48.50;;;;;;31932138;27;20119;-63
2021/10/26 07:41:12;;;;;;;20.67;13.73;;;22.60;48.40;;;;;;31926260;28;20054;-63
2021/10/26 07:56:16;;;;;;;17.85;10.52;;;22.80;47.30;;;;;;31615400;27;9999954;-45
2021/10/26 08:11:19;;;;;;;13.23;9.27;;;22.90;46.00;;;;;;31941498;27;20043;-51
2021/10/26 08:26:25;;;;;;;26.73;21.42;;;23.10;47.60;;;;;;31988508;27;20070;-51
2021/10/26 08:41:29;;;;;;;30.77;22.42;;;23.00;48.00;;;;;;31970438;27;20043;-50
2021/10/26 08:56:31;;;;;;;29.33;20.85;;;23.00;48.60;;;;;;31997471;27;20088;-44
2021/10/26 09:27:19;;;;;;;23.85;19.13;;;22.90;50.20;;;;;;31958783;27;20043;-57
2021/10/26 09:42:22;;;;;;;37.00;24.52;;;22.90;51.10;;;;;;31903642;27;20067;-57
2021/10/26 09:57:35;;;;;;;32.35;22.35;;;22.90;51.20;;;;;;31907317;27;20149;-53
2021/10/26 10:12:38;;;;;;;45.72;20.90;;;22.80;50.40;;;;;;31950934;27;20130;-52
2021/10/26 10:27:43;;;;;;;30.00;15.10;;;22.70;49.70;;;;;;31886433;27;20050;-57
2021/10/26 10:42:48;;;;;;;27.73;11.85;;;22.70;48.60;;;;;;31905166;27;20040;-53
2021/10/26 10:57:50;;;;;;;31.90;20.88;;;22.60;47.40;;;;;;31991726;27;20085;-47
2021/10/26 11:13:22;;;;;;;33.70;25.10;;;22.70;48.50;;;;;;31935341;27;20050;-52
2021/10/26 11:28:28;;;;;;;30.70;23.67;;;23.10;49.00;;;;;;31863842;28;20046;-55
2021/10/26 11:43:46;;;;;;;24.13;20.15;;;23.20;49.10;;;;;;31995719;27;20043;-47
2021/10/26 11:59:18;;;;;;;28.17;19.77;;;23.20;49.90;;;;;;31627821;27;10000919;-51
2021/10/26 12:14:32;;;;;;;26.25;16.50;;;23.10;50.30;;;;;;31953224;27;20070;-51
2021/10/26 12:29:41;;;;;;;22.73;15.25;;;23.10;50.70;;;;;;32005010;27;20062;-49
2021/10/26 12:44:53;;;;;;;19.83;13.50;;;23.00;50.40;;;;;;31934124;27;20065;-45
2021/10/26 13:00:22;;;;;;;15.70;12.52;;;22.90;50.40;;;;;;31879267;27;20128;-52
2021/10/26 13:15:33;;;;;;;24.38;21.45;;;22.90;51.40;;;;;;31956786;27;20047;-53
2021/10/26 13:30:49;;;;;;;20.90;16.67;;;23.00;50.70;;;;;;31918625;27;20112;-49
2021/10/26 13:45:52;;;;;;;37.03;29.92;;;22.90;50.10;;;;;;31889716;27;20047;-53
2021/10/26 14:00:58;;;;;;;22.98;19.02;;;22.80;48.70;;;;;;31881606;27;20059;-55
2021/10/26 14:16:01;;;;;;;24.55;19.00;;;22.80;48.60;;;;;;31880528;27;20047;-53
2021/10/26 14:31:08;;;;;;;25.77;19.48;;;22.70;45.90;;;;;;31934666;27;20040;-46
2021/10/26 15:01:35;;;;;;;19.30;15.20;;;22.50;49.00;;;;;;31944277;27;20047;-50
2021/10/26 15:16:43;;;;;;;23.10;12.27;;;22.50;49.60;;;;;;31918279;27;20047;-52
2021/10/26 15:47:06;;;;;;;20.58;11.18;;;23.20;50.60;;;;;;31899745;28;20044;-53
2021/10/26 16:02:08;;;;;;;14.50;9.65;;;23.40;51.10;;;;;;31913434;27;20075;-50
2021/10/26 16:17:10;;;;;;;15.52;9.45;;;23.40;51.90;;;;;;31556978;27;10000608;-48
2021/10/26 16:32:13;;;;;;;12.98;8.05;;;23.20;51.60;;;;;;31988215;27;20040;-48
2021/10/26 16:47:16;;;;;;;17.88;9.05;;;23.20;52.60;;;;;;31950425;27;20047;-46
2021/10/26 17:02:19;;;;;;;12.80;7.88;;;23.10;52.40;;;;;;31901728;27;20084;-53
2021/10/26 17:17:21;;;;;;;31.33;15.43;;;23.10;52.10;;;;;;31898689;27;20043;-52
2021/10/26 17:32:23;;;;;;;30.17;14.85;;;23.10;54.00;;;;;;31957466;27;20063;-52
2021/10/26 17:47:25;;;;;;;25.92;12.30;;;23.00;54.10;;;;;;31965331;27;20073;-55
2021/10/26 18:02:27;;;;;;;31.48;13.07;;;23.00;54.40;;;;;;31948431;27;20059;-52
2021/10/26 18:17:29;;;;;;;21.42;12.02;;;22.90;53.80;;;;;;31947297;27;20040;-47
2021/10/26 18:32:41;;;;;;;25.83;11.20;;;22.80;54.00;;;;;;31956235;27;20096;-53
2021/10/26 18:47:45;;;;;;;20.10;10.07;;;22.80;54.30;;;;;;31895588;27;20099;-50
2021/10/26 19:02:48;;;;;;;19.35;9.38;;;23.20;53.90;;;;;;31927350;27;20042;-57
2021/10/26 19:17:50;;;;;;;15.90;8.70;;;23.40;54.30;;;;;;31953836;27;20035;-49
2021/10/26 19:32:52;;;;;;;34.60;20.98;;;23.50;54.90;;;;;;31944088;27;20124;-50
2021/10/26 19:47:55;;;;;;;25.23;19.02;;;23.30;54.10;;;;;;31610907;27;10000275;-52
2021/10/26 20:02:59;;;;;;;24.83;18.15;;;23.10;53.40;;;;;;31933266;27;20071;-50
2021/10/26 20:18:03;;;;;;;21.33;15.10;;;23.00;52.80;;;;;;31947020;27;20047;-49
2021/10/26 20:33:05;;;;;;;62.35;41.25;;;22.90;52.20;;;;;;31947314;27;20138;-54
2021/10/26 20:48:07;;;;;;;53.13;38.65;;;22.80;50.60;;;;;;31924159;27;20039;-57
2021/10/26 21:03:09;;;;;;;49.47;37.88;;;23.00;51.20;;;;;;31920286;27;20047;-50
2021/10/26 21:18:11;;;;;;;50.38;37.75;;;23.00;52.00;;;;;;31973471;27;20058;-48
2021/10/26 21:33:20;;;;;;;41.42;31.17;;;22.70;51.50;;;;;;31946457;27;20047;-51
2021/10/26 21:48:25;;;;;;;32.63;25.10;;;22.70;52.10;;;;;;31906997;27;20432;-49
2021/10/26 22:03:28;;;;;;;20.15;15.50;;;22.60;52.50;;;;;;31909183;27;20063;-52
2021/10/26 22:18:32;;;;;;;16.10;13.23;;;22.70;52.80;;;;;;31910129;27;20523;-50
2021/10/26 22:33:34;;;;;;;11.38;9.23;;;23.10;53.60;;;;;;31899084;27;20043;-52
2021/10/26 22:48:37;;;;;;;10.45;8.90;;;23.20;53.70;;;;;;31911559;27;20043;-49
2021/10/26 23:03:39;;;;;;;8.85;7.05;;;23.20;53.50;;;;;;31885714;27;20043;-50
2021/10/26 23:18:42;;;;;;;6.63;5.60;;;23.00;54.00;;;;;;31897323;27;20095;-51
2021/10/26 23:33:45;;;;;;;9.18;6.60;;;23.00;53.70;;;;;;31880501;27;20050;-54
2021/10/26 23:48:47;;;;;;;6.18;4.00;;;23.00;53.20;;;;;;31872250;28;20050;-54
